Time;durP1;ratioP1;P1;durP2;ratioP2;P2;SDS_P1;SDS_P2;PMS_P1;PMS_P2;Temp;Humidity;BMP_temperature;BMP_pressure;BME280_temperature;BME280_humidity;BME280_pressure;Samples;Min_cycle;Max_cycle;Signal;HPM_P1;HPM_P2
2023/10/18 00:00:58;;;;;;;18.67;12.87;;;;;;;5.37;73.68;100636.75;5049768;28;20295;-63
2023/10/18 00:03:29;;;;;;;21.50;13.97;;;;;;;5.36;73.80;100635.03;5043647;28;20202;-64
2023/10/18 00:05:57;;;;;;;20.23;13.20;;;;;;;5.37;73.78;100627.41;5051139;28;20244;-61
2023/10/18 00:08:25;;;;;;;22.07;13.30;;;;;;;5.31;73.73;100630.72;5047557;28;20245;-61
2023/10/18 00:10:54;;;;;;;19.17;13.07;;;;;;;5.32;73.88;100634.13;5051438;28;20604;-62
2023/10/18 00:13:24;;;;;;;22.63;13.60;;;;;;;5.29;74.24;100627.25;5048982;28;20669;-70
2023/10/18 00:15:59;;;;;;;21.33;12.77;;;;;;;5.30;73.74;100626.44;5052582;28;20229;-64
2023/10/18 00:18:28;;;;;;;20.40;13.83;;;;;;;5.22;73.99;100620.31;5045289;28;20212;-65
2023/10/18 00:21:00;;;;;;;18.30;12.63;;;;;;;5.24;74.96;100622.91;5049601;28;20278;-61
2023/10/18 00:23:30;;;;;;;22.60;13.13;;;;;;;5.18;74.19;100618.53;5051892;28;20241;-63
2023/10/18 00:26:00;;;;;;;20.40;12.90;;;;;;;5.19;74.32;100609.16;5044230;28;20670;-61
2023/10/18 00:28:29;;;;;;;20.37;13.33;;;;;;;5.23;74.64;100605.88;5046335;28;20245;-64
2023/10/18 00:30:57;;;;;;;20.30;12.27;;;;;;;5.24;74.00;100610.13;5049229;28;20680;-62
2023/10/18 00:33:28;;;;;;;19.73;12.50;;;;;;;5.24;74.08;100616.09;5045830;28;20216;-63
2023/10/18 00:35:57;;;;;;;18.37;12.47;;;;;;;5.25;73.68;100606.72;5054144;28;20597;-63
2023/10/18 00:38:25;;;;;;;20.43;12.67;;;;;;;5.27;73.94;100612.75;5049252;28;20225;-63
2023/10/18 00:40:56;;;;;;;22.03;12.77;;;;;;;5.22;74.29;100610.09;5046806;28;20198;-61
2023/10/18 00:43:26;;;;;;;20.20;13.13;;;;;;;5.23;73.96;100605.88;5053966;28;20217;-61
2023/10/18 00:45:56;;;;;;;18.77;12.10;;;;;;;5.23;73.67;100604.16;5046266;28;20198;-63
2023/10/18 00:48:27;;;;;;;20.90;12.63;;;;;;;5.22;73.75;100601.56;5048311;28;20202;-67
2023/10/18 00:50:59;;;;;;;18.50;12.20;;;;;;;5.12;73.86;100592.88;5048441;28;20226;-71
2023/10/18 00:53:30;;;;;;;20.63;12.47;;;;;;;5.11;73.73;100588.59;5056959;28;20202;-71
2023/10/18 00:56:00;;;;;;;18.20;12.03;;;;;;;5.11;73.76;100592.84;5047329;28;20665;-68
2023/10/18 00:58:29;;;;;;;25.03;12.47;;;;;;;5.10;74.09;100591.97;5049219;28;20260;-70
2023/10/18 01:01:01;;;;;;;18.03;12.00;;;;;;;5.02;73.91;100589.28;5048261;28;20202;-69
2023/10/18 01:03:28;;;;;;;22.93;13.07;;;;;;;4.99;74.32;100593.47;5049281;28;20818;-70
2023/10/18 01:05:59;;;;;;;17.67;11.63;;;;;;;4.99;74.14;100580.69;5051145;28;20202;-69
2023/10/18 01:08:29;;;;;;;20.70;13.03;;;;;;;4.93;74.47;100583.13;5043695;28;20692;-74
2023/10/18 01:11:03;;;;;;;22.43;11.90;;;;;;;4.94;74.59;100589.97;5046304;28;20665;-71
2023/10/18 01:13:34;;;;;;;20.73;12.30;;;;;;;4.89;74.81;100586.44;5050862;28;20201;-70
2023/10/18 01:16:07;;;;;;;21.87;11.47;;;;;;;4.88;74.88;100584.72;5042063;28;20210;-69
2023/10/18 01:18:36;;;;;;;19.20;11.90;;;;;;;4.85;75.03;100577.84;5054560;28;20752;-69
2023/10/18 01:21:14;;;;;;;19.77;12.60;;;;;;;4.89;75.11;100581.34;5052092;28;20209;-67
2023/10/18 01:23:49;;;;;;;18.70;11.80;;;;;;;4.90;74.51;100583.03;5050804;28;20613;-67
2023/10/18 01:26:19;;;;;;;21.40;12.70;;;;;;;4.88;74.97;100577.06;5047621;28;20280;-70
2023/10/18 01:28:48;;;;;;;20.77;11.83;;;;;;;4.89;74.81;100578.78;5053903;28;20198;-68
2023/10/18 01:31:16;;;;;;;20.57;12.67;;;;;;;4.92;74.86;100577.16;5052324;28;20307;-70
2023/10/18 01:33:46;;;;;;;20.23;12.93;;;;;;;4.88;74.82;100569.41;5052701;28;20550;-70
2023/10/18 01:36:15;;;;;;;20.20;12.93;;;;;;;4.88;74.65;100569.41;5051832;28;20202;-68
2023/10/18 01:38:46;;;;;;;18.03;12.07;;;;;;;4.86;74.64;100566.84;5052785;28;20225;-71
2023/10/18 01:41:16;;;;;;;18.07;12.20;;;;;;;4.83;74.80;100572.72;5048620;28;20669;-70
2023/10/18 01:43:47;;;;;;;17.40;12.20;;;;;;;4.80;74.80;100574.38;5052306;28;20252;-70
2023/10/18 01:46:16;;;;;;;20.67;12.13;;;;;;;4.78;74.57;100574.31;5053893;28;20198;-70
2023/10/18 01:48:50;;;;;;;19.07;12.07;;;;;;;4.76;74.62;100573.44;5048006;28;20194;-69
2023/10/18 01:51:19;;;;;;;21.37;12.63;;;;;;;4.74;74.68;100576.78;5053087;28;20206;-69
2023/10/18 01:53:50;;;;;;;17.27;12.07;;;;;;;4.71;74.81;100577.56;5056247;28;20636;-72
2023/10/18 01:56:21;;;;;;;20.57;11.97;;;;;;;4.70;74.32;100570.75;5053473;28;20619;-68
2023/10/18 01:58:51;;;;;;;19.53;12.60;;;;;;;4.68;75.13;100576.66;5053431;28;20218;-67
2023/10/18 02:01:19;;;;;;;18.63;12.27;;;;;;;4.70;74.96;100570.75;5051794;28;20603;-66
2023/10/18 02:03:49;;;;;;;19.87;12.87;;;;;;;4.68;74.83;100564.75;5055675;28;20201;-63
2023/10/18 02:06:19;;;;;;;20.63;12.10;;;;;;;4.70;74.81;100572.44;5054254;28;20198;-65
2023/10/18 02:08:49;;;;;;;21.80;12.90;;;;;;;4.70;74.73;100565.63;5050422;28;20283;-64
2023/10/18 02:11:17;;;;;;;17.53;10.33;;;;;;;4.75;74.98;100569.16;5056339;28;20202;-64
2023/10/18 02:13:46;;;;;;;23.10;13.40;;;;;;;4.77;74.81;100564.94;5052539;28;20206;-65
2023/10/18 02:16:16;;;;;;;18.70;12.20;;;;;;;4.78;74.48;100564.09;5052090;28;20715;-65
2023/10/18 02:18:46;;;;;;;15.33;11.43;;;;;;;4.81;74.28;100569.28;5051539;28;20214;-65
2023/10/18 02:21:15;;;;;;;21.57;12.77;;;;;;;4.80;73.96;100557.34;5048853;28;21962;-68
2023/10/18 02:23:48;;;;;;;18.27;12.53;;;;;;;4.80;73.92;100566.69;5050862;28;20228;-65
2023/10/18 02:26:30;;;;;;;20.87;12.17;;;;;;;4.77;74.17;100574.28;5055942;28;20847;-63
2023/10/18 02:29:00;;;;;;;17.87;11.73;;;;;;;4.78;73.96;100568.34;5057061;28;20564;-66
2023/10/18 02:31:30;;;;;;;22.60;12.63;;;;;;;4.77;73.99;100566.63;5052675;28;20653;-65
2023/10/18 02:33:58;;;;;;;19.67;11.67;;;;;;;4.74;74.00;100571.66;5051943;28;20653;-72
2023/10/18 02:36:38;;;;;;;25.03;12.33;;;;;;;4.70;73.91;100559.69;5051666;28;20297;-65
2023/10/18 02:39:08;;;;;;;17.17;11.33;;;;;;;4.69;74.49;100566.47;5049050;28;20648;-65
2023/10/18 02:41:38;;;;;;;19.87;12.60;;;;;;;4.70;74.14;100565.63;5052937;28;20193;-65
2023/10/18 02:44:11;;;;;;;19.03;12.20;;;;;;;4.72;74.04;100560.59;5050560;28;20206;-65
2023/10/18 02:46:40;;;;;;;19.27;12.10;;;;;;;4.66;74.12;100553.66;5051834;28;20256;-64
2023/10/18 02:49:08;;;;;;;17.23;11.37;;;;;;;4.60;74.31;100561.16;5053720;28;20289;-65
2023/10/18 02:51:36;;;;;;;20.23;12.23;;;;;;;4.60;74.21;100564.59;5050963;28;20236;-63
2023/10/18 02:54:13;;;;;;;19.70;12.23;;;;;;;4.61;74.44;100550.16;5048151;28;20653;-64
2023/10/18 02:56:41;;;;;;;21.10;12.30;;;;;;;4.57;73.94;100551.78;5049798;28;20679;-64
2023/10/18 02:59:10;;;;;;;22.33;12.70;;;;;;;4.49;74.54;100557.53;5049266;28;20311;-64
2023/10/18 03:01:43;;;;;;;17.43;11.90;;;;;;;4.48;74.63;100543.06;5051439;28;20208;-65
2023/10/18 03:04:14;;;;;;;19.07;12.87;;;;;;;4.51;74.37;100540.56;5060676;28;20628;-64
2023/10/18 03:06:45;;;;;;;20.30;12.73;;;;;;;4.53;74.67;100542.34;5054223;28;20202;-65
2023/10/18 03:09:26;;;;;;;18.70;12.17;;;;;;;4.53;74.37;100536.38;5056297;28;20204;-65
2023/10/18 03:11:55;;;;;;;24.23;12.93;;;;;;;4.43;74.86;100539.56;5050150;28;20206;-69
2023/10/18 03:14:36;;;;;;;17.90;12.70;;;;;;;4.40;74.87;100532.69;5049305;28;20530;-72
2023/10/18 03:17:14;;;;;;;22.53;12.73;;;;;;;4.33;75.00;100536.81;5048529;28;20288;-67
2023/10/18 03:19:44;;;;;;;22.50;13.60;;;;;;;4.28;74.81;100540.09;5048520;28;20305;-70
2023/10/18 03:22:13;;;;;;;19.37;12.97;;;;;;;4.32;75.20;100541.88;5052826;28;20205;-72
2023/10/18 03:24:42;;;;;;;22.63;14.10;;;;;;;4.28;75.41;100542.66;5053237;28;20224;-70
2023/10/18 03:27:11;;;;;;;21.10;12.90;;;;;;;4.29;75.17;100534.16;5048871;28;20217;-71
2023/10/18 03:29:39;;;;;;;18.50;12.43;;;;;;;4.29;74.97;100536.72;5046764;28;20202;-70
2023/10/18 03:32:14;;;;;;;20.07;13.10;;;;;;;4.26;75.07;100527.28;5047374;28;20206;-68
2023/10/18 03:34:44;;;;;;;20.30;13.27;;;;;;;4.19;75.18;100519.47;5049507;28;20289;-71
2023/10/18 03:37:18;;;;;;;22.60;14.00;;;;;;;4.16;75.78;100522.84;5051292;28;20270;-70
2023/10/18 03:39:47;;;;;;;24.87;15.27;;;;;;;4.07;75.97;100514.97;5050645;28;20249;-69
2023/10/18 03:42:30;;;;;;;25.67;14.63;;;;;;;4.04;76.38;100509.78;5052582;28;20228;-69
2023/10/18 03:44:59;;;;;;;20.53;13.40;;;;;;;4.07;75.92;100500.53;5048977;28;20209;-69
2023/10/18 03:47:36;;;;;;;24.27;14.87;;;;;;;4.12;75.88;100500.63;5049452;28;20726;-67
2023/10/18 03:50:08;;;;;;;21.67;14.43;;;;;;;4.09;76.11;100498.88;5049205;28;20676;-67
2023/10/18 03:52:38;;;;;;;25.47;14.43;;;;;;;4.10;76.34;100498.03;5050710;28;20288;-68
2023/10/18 03:55:12;;;;;;;22.90;14.03;;;;;;;4.04;76.17;100510.66;5050024;28;20201;-73
2023/10/18 03:57:41;;;;;;;21.67;14.07;;;;;;;4.01;76.91;100495.28;5051702;28;20215;-69
2023/10/18 04:02:57;;;;;;;21.27;13.70;;;;;;;4.03;76.42;100495.34;5036397;28;20718;-70
2023/10/18 04:05:35;;;;;;;24.43;14.37;;;;;;;4.07;76.49;100497.97;5049913;28;20232;-68
2023/10/18 04:08:06;;;;;;;21.53;13.57;;;;;;;4.04;76.86;100491.94;5048436;28;20240;-69
2023/10/18 04:10:36;;;;;;;22.53;14.27;;;;;;;4.03;77.05;100487.69;5048769;28;20712;-69
2023/10/18 04:13:11;;;;;;;19.73;12.97;;;;;;;3.99;77.04;100496.09;5058512;28;20211;-66
2023/10/18 04:15:45;;;;;;;23.00;14.07;;;;;;;3.98;76.98;100494.38;5045153;28;20684;-68
2023/10/18 04:18:25;;;;;;;23.00;14.73;;;;;;;3.97;77.45;100495.19;5048988;28;20495;-71
2023/10/18 04:20:54;;;;;;;22.83;13.70;;;;;;;4.02;77.09;100496.16;5048619;28;20205;-65
2023/10/18 04:23:25;;;;;;;21.40;14.20;;;;;;;4.01;77.44;100495.28;5050710;28;20582;-65
2023/10/18 04:26:01;;;;;;;24.60;13.97;;;;;;;4.02;77.17;100491.94;5048209;28;20198;-65
2023/10/18 04:28:30;;;;;;;25.37;13.97;;;;;;;4.05;77.20;100488.56;5047410;28;20198;-65
2023/10/18 04:31:00;;;;;;;21.90;13.43;;;;;;;4.05;77.58;100492.00;5047790;28;20216;-67
2023/10/18 04:33:36;;;;;;;22.87;14.10;;;;;;;4.05;77.33;100498.75;5049503;28;20930;-66
2023/10/18 04:36:10;;;;;;;21.20;13.63;;;;;;;4.02;77.12;100485.97;5043714;28;20201;-66
2023/10/18 04:38:42;;;;;;;21.83;13.90;;;;;;;4.00;77.35;100492.72;5045598;28;20245;-62
2023/10/18 04:41:22;;;;;;;22.47;12.90;;;;;;;3.98;77.54;100484.19;5053225;28;20210;-64
2023/10/18 04:43:51;;;;;;;23.80;13.23;;;;;;;3.96;77.72;100490.94;5051105;28;21306;-61
2023/10/18 04:46:25;;;;;;;21.67;13.97;;;;;;;3.96;77.38;100490.94;5052107;28;20214;-60
2023/10/18 04:49:16;;;;;;;23.73;13.47;;;;;;;3.94;77.63;100484.91;5050534;28;20202;-63
2023/10/18 04:51:48;;;;;;;21.87;13.50;;;;;;;3.96;77.55;100484.13;5056666;28;20582;-63
2023/10/18 04:54:18;;;;;;;21.20;13.57;;;;;;;3.97;77.54;100480.75;5051750;28;20260;-64
2023/10/18 04:56:53;;;;;;;18.33;12.07;;;;;;;3.94;77.96;100490.00;5049666;28;20213;-67
2023/10/18 04:59:30;;;;;;;25.90;14.03;;;;;;;3.93;78.19;100484.06;5047598;28;20719;-65
2023/10/18 05:02:05;;;;;;;21.43;14.57;;;;;;;4.00;77.96;100487.59;5043952;28;20202;-64
2023/10/18 05:04:34;;;;;;;23.47;13.43;;;;;;;4.00;77.72;100487.59;5037699;28;20244;-63
2023/10/18 05:07:14;;;;;;;22.30;13.17;;;;;;;4.05;77.07;100489.44;5046443;28;20717;-65
2023/10/18 05:09:44;;;;;;;18.80;12.83;;;;;;;3.99;77.43;100486.75;5048957;28;20389;-65
2023/10/18 05:12:28;;;;;;;21.73;12.80;;;;;;;4.02;77.57;100491.06;5047138;28;20239;-65
2023/10/18 05:15:16;;;;;;;19.97;13.00;;;;;;;4.03;77.74;100495.34;5049497;28;20252;-65
2023/10/18 05:17:45;;;;;;;23.77;12.90;;;;;;;3.95;77.92;100491.75;5049330;28;20213;-67
2023/10/18 05:20:24;;;;;;;18.33;12.53;;;;;;;3.97;77.52;100497.75;5043439;28;20697;-63
2023/10/18 05:22:58;;;;;;;20.63;12.23;;;;;;;4.01;77.46;100502.06;5047826;28;20206;-64
2023/10/18 05:25:34;;;;;;;19.40;12.97;;;;;;;4.05;77.58;100496.22;5047712;28;20229;-63
2023/10/18 05:28:09;;;;;;;20.47;11.83;;;;;;;4.07;77.47;100494.56;5047022;28;20288;-63
2023/10/18 05:33:47;;;;;;;21.33;13.13;;;;;;;4.05;77.52;100494.56;5016060;28;20298;-66
2023/10/18 05:36:35;;;;;;;25.97;13.50;;;;;;;4.04;77.51;100499.59;5047080;28;20205;-70
2023/10/18 05:39:27;;;;;;;26.40;12.73;;;;;;;4.04;77.56;100497.03;5047237;28;20213;-68
2023/10/18 05:42:03;;;;;;;21.27;13.30;;;;;;;4.04;77.80;100505.56;5043321;28;20202;-68
2023/10/18 05:44:32;;;;;;;23.13;13.23;;;;;;;4.12;77.59;100508.28;5050691;28;20205;-69
2023/10/18 05:47:06;;;;;;;26.53;12.90;;;;;;;4.13;77.21;100494.72;5047329;28;20706;-69
2023/10/18 05:49:41;;;;;;;19.17;13.10;;;;;;;4.19;76.59;100510.13;5046863;28;20198;-66
2023/10/18 05:52:36;;;;;;;20.37;12.43;;;;;;;4.17;76.74;100500.75;5052633;28;20201;-70
2023/10/18 05:55:08;;;;;;;20.00;11.97;;;;;;;4.14;76.78;100505.78;5046186;28;20206;-71
2023/10/18 05:57:40;;;;;;;22.10;12.77;;;;;;;4.19;77.22;100505.03;5047040;28;20296;-70
2023/10/18 06:00:17;;;;;;;20.90;12.70;;;;;;;4.23;77.01;100498.31;5053608;28;20213;-68
2023/10/18 06:02:46;;;;;;;21.87;12.73;;;;;;;4.22;76.79;100489.78;5044889;28;20214;-70
2023/10/18 06:05:14;;;;;;;22.83;13.87;;;;;;;4.27;76.63;100495.88;5053481;28;20206;-69
2023/10/18 06:07:45;;;;;;;21.43;13.10;;;;;;;4.26;76.57;100491.56;5050881;28;20243;-68
2023/10/18 06:10:17;;;;;;;25.07;13.73;;;;;;;4.32;76.71;100498.50;5051277;28;20565;-67
2023/10/18 06:12:48;;;;;;;23.47;14.13;;;;;;;4.36;77.20;100485.84;5046163;28;21453;-65
2023/10/18 06:15:30;;;;;;;22.30;13.87;;;;;;;4.48;76.27;100492.03;5053065;28;20205;-68
2023/10/18 06:18:00;;;;;;;20.03;12.77;;;;;;;4.64;75.73;100490.63;5053815;28;20719;-67
2023/10/18 06:20:28;;;;;;;19.10;12.93;;;;;;;4.78;75.21;100487.50;5053877;28;20239;-67
2023/10/18 06:23:08;;;;;;;21.67;13.53;;;;;;;5.00;74.94;100487.91;5053883;28;20216;-69
2023/10/18 06:25:44;;;;;;;20.97;12.90;;;;;;;5.18;73.72;100480.56;5050570;28;20224;-67
2023/10/18 06:28:20;;;;;;;20.10;12.10;;;;;;;5.35;73.62;100482.56;5052935;28;20626;-65
2023/10/18 06:30:51;;;;;;;17.23;12.17;;;;;;;5.50;73.04;100477.72;5053897;28;20205;-66
2023/10/18 06:33:19;;;;;;;16.10;11.37;;;;;;;5.64;71.95;100472.81;5047539;28;20209;-66
2023/10/18 06:35:52;;;;;;;19.63;11.73;;;;;;;5.82;71.43;100479.06;5053997;28;20756;-65
2023/10/18 06:38:23;;;;;;;15.93;11.67;;;;;;;6.03;71.08;100473.41;5053724;28;20658;-66
2023/10/18 06:40:53;;;;;;;21.00;11.77;;;;;;;6.14;69.71;100470.13;5049554;28;20213;-61
2023/10/18 06:43:25;;;;;;;20.97;11.90;;;;;;;6.16;69.41;100459.09;5053236;28;20220;-60
2023/10/18 06:45:54;;;;;;;16.13;10.80;;;;;;;6.16;69.03;100455.69;5056292;28;20201;-62
2023/10/18 06:48:26;;;;;;;14.90;10.57;;;;;;;6.00;69.40;100462.28;5057940;28;20206;-62
2023/10/18 06:50:55;;;;;;;17.70;11.10;;;;;;;6.05;69.67;100450.44;5050673;28;20289;-63
2023/10/18 06:53:25;;;;;;;17.83;10.60;;;;;;;6.30;70.45;100456.72;5059938;28;20251;-69
2023/10/18 06:55:57;;;;;;;17.23;9.80;;;;;;;6.47;68.50;100457.75;5057030;28;20221;-62
2023/10/18 06:58:42;;;;;;;19.47;10.50;;;;;;;6.41;67.49;100457.72;5051316;28;20213;-61
2023/10/18 07:01:14;;;;;;;14.73;9.87;;;;;;;6.27;68.08;100459.25;5052525;28;20214;-64
2023/10/18 07:03:43;;;;;;;16.03;9.93;;;;;;;6.23;69.07;100466.00;5051100;28;20209;-64
2023/10/18 07:06:18;;;;;;;14.40;9.73;;;;;;;6.16;68.42;100464.22;5053855;28;20217;-62
2023/10/18 07:08:49;;;;;;;14.27;9.73;;;;;;;6.13;69.01;100469.28;5052800;28;20241;-69
2023/10/18 07:11:18;;;;;;;16.00;9.40;;;;;;;6.08;69.16;100464.97;5051823;28;20607;-63
2023/10/18 07:14:04;;;;;;;13.80;9.90;;;;;;;6.07;69.28;100466.63;5052584;28;20649;-63
2023/10/18 07:16:38;;;;;;;18.23;9.73;;;;;;;6.10;69.12;100466.69;5047364;28;20247;-65
2023/10/18 07:19:21;;;;;;;13.23;9.40;;;;;;;6.11;69.52;100463.28;5047028;28;20696;-62
2023/10/18 07:21:49;;;;;;;18.63;9.63;;;;;;;6.12;69.14;100452.22;5044380;28;20688;-65
2023/10/18 07:24:20;;;;;;;17.40;10.07;;;;;;;6.18;69.52;100448.88;5049156;28;20208;-64
2023/10/18 07:26:49;;;;;;;13.90;8.07;;;;;;;6.22;68.93;100448.94;5047282;28;20213;-64
2023/10/18 07:29:20;;;;;;;13.97;8.77;;;;;;;6.21;68.62;100449.75;5058414;28;20300;-63
2023/10/18 07:31:53;;;;;;;13.93;7.80;;;;;;;6.27;68.13;100442.19;5047731;28;20279;-62
2023/10/18 07:34:28;;;;;;;12.10;8.03;;;;;;;6.37;68.42;100432.03;5049873;28;20210;-61
2023/10/18 07:36:57;;;;;;;11.57;8.23;;;;;;;6.71;68.14;100433.28;5047619;28;20271;-60
2023/10/18 07:39:27;;;;;;;16.40;7.53;;;;;;;7.38;66.88;100423.63;5049900;28;20202;-62
2023/10/18 07:41:55;;;;;;;12.03;8.03;;;;;;;8.33;65.06;100423.31;5048407;28;20212;-67
2023/10/18 07:44:24;;;;;;;12.23;7.27;;;;;;;9.47;60.16;100435.50;5048279;28;20206;-62
2023/10/18 07:46:52;;;;;;;10.70;8.17;;;;;;;10.66;54.03;100420.53;5054571;28;20220;-63
2023/10/18 07:49:20;;;;;;;10.53;6.90;;;;;;;11.00;53.22;100414.28;5051705;28;20212;-64
2023/10/18 07:51:55;;;;;;;12.10;7.27;;;;;;;10.69;52.56;100415.38;5050010;28;20281;-58
2023/10/18 07:54:26;;;;;;;11.67;6.57;;;;;;;10.20;53.23;100420.72;5049149;28;20202;-62
2023/10/18 07:56:56;;;;;;;10.43;6.63;;;;;;;9.64;54.46;100427.75;5048388;28;20684;-60
2023/10/18 07:59:30;;;;;;;9.13;6.93;;;;;;;9.07;55.85;100435.50;5044732;28;20610;-64
2023/10/18 08:02:12;;;;;;;9.17;6.93;;;;;;;8.68;57.29;100424.28;5049501;28;20624;-61
2023/10/18 08:04:43;;;;;;;8.80;5.77;;;;;;;8.40;58.55;100425.09;5060899;28;20564;-60
2023/10/18 08:07:15;;;;;;;10.83;5.80;;;;;;;8.22;59.31;100436.09;5050295;28;20216;-60
2023/10/18 08:09:44;;;;;;;9.83;6.43;;;;;;;7.98;60.30;100432.56;5063258;28;20716;-61
2023/10/18 08:12:25;;;;;;;7.33;5.70;;;;;;;7.89;61.18;100434.22;5047713;28;20213;-62
2023/10/18 08:14:57;;;;;;;10.27;5.70;;;;;;;7.79;61.39;100435.03;5048030;28;20213;-61
2023/10/18 08:17:33;;;;;;;8.03;5.03;;;;;;;7.66;61.30;100434.94;5050137;28;20221;-62
2023/10/18 08:20:40;;;;;;;10.70;5.83;;;;;;;7.60;62.37;100423.78;5044174;28;20229;-60
2023/10/18 08:23:19;;;;;;;10.87;5.73;;;;;;;7.49;62.15;100431.41;5044813;28;20213;-64
2023/10/18 08:25:51;;;;;;;7.77;5.23;;;;;;;7.50;63.10;100425.41;5047805;28;20221;-62
2023/10/18 08:28:21;;;;;;;9.27;5.50;;;;;;;7.57;62.55;100427.19;5049756;28;20198;-70
2023/10/18 08:33:40;;;;;;;8.30;5.00;;;;;;;7.68;61.75;100417.84;5038954;28;20596;-65
2023/10/18 08:36:13;;;;;;;7.30;4.90;;;;;;;7.69;61.63;100414.44;5049835;28;20217;-67
2023/10/18 08:38:44;;;;;;;7.47;4.77;;;;;;;7.72;61.21;100424.72;5045590;28;20210;-65
2023/10/18 08:41:16;;;;;;;6.37;4.60;;;;;;;7.76;61.47;100417.91;5050515;28;20264;-63
2023/10/18 08:44:05;;;;;;;9.03;4.70;;;;;;;7.78;61.04;100421.34;5050802;28;20198;-63
2023/10/18 08:46:37;;;;;;;8.23;4.90;;;;;;;7.79;61.32;100417.91;5049006;28;20216;-64
2023/10/18 08:49:06;;;;;;;6.23;4.67;;;;;;;7.84;61.60;100412.81;5048860;28;20212;-64
2023/10/18 08:51:37;;;;;;;5.30;4.33;;;;;;;7.91;61.61;100414.56;5047162;28;20641;-64
2023/10/18 08:54:17;;;;;;;6.10;4.50;;;;;;;7.94;61.64;100409.44;5053169;28;20198;-63
2023/10/18 08:56:47;;;;;;;6.83;4.30;;;;;;;7.93;61.01;100410.31;5050741;28;20591;-63
2023/10/18 08:59:20;;;;;;;6.00;4.27;;;;;;;7.96;61.59;100403.47;5058856;28;20290;-61
2023/10/18 09:02:12;;;;;;;5.80;3.73;;;;;;;7.98;60.84;100412.03;5048389;28;20432;-63
2023/10/18 09:04:44;;;;;;;7.33;4.67;;;;;;;8.02;60.23;100423.16;5047253;28;20296;-63
2023/10/18 09:07:42;;;;;;;5.50;3.87;;;;;;;8.05;61.50;100414.63;5049171;28;20224;-63
2023/10/18 09:10:13;;;;;;;5.70;3.77;;;;;;;8.11;60.67;100415.53;5046087;28;20202;-65
2023/10/18 09:15:34;;;;;;;7.13;4.40;;;;;;;8.18;60.00;100414.69;5049149;28;20229;-62
2023/10/18 09:18:19;;;;;;;5.53;3.80;;;;;;;8.22;60.25;100401.03;5045182;28;20656;-64
2023/10/18 09:20:48;;;;;;;6.50;4.00;;;;;;;8.24;59.88;100409.56;5051675;28;20652;-66
2023/10/18 09:23:20;;;;;;;5.70;4.10;;;;;;;8.28;59.69;100404.44;5050529;28;20206;-64
2023/10/18 09:25:48;;;;;;;7.53;3.80;;;;;;;8.35;60.31;100403.63;5050598;28;20249;-63
2023/10/18 09:28:21;;;;;;;6.40;3.80;;;;;;;8.39;59.18;100403.66;5048161;28;22035;-65
2023/10/18 09:30:53;;;;;;;4.17;3.40;;;;;;;8.41;58.71;100417.38;5048762;28;20209;-64
2023/10/18 09:33:26;;;;;;;5.90;3.70;;;;;;;8.44;58.60;100416.53;5045466;28;20205;-62
2023/10/18 09:36:01;;;;;;;5.97;3.87;;;;;;;8.49;58.88;100414.81;5047622;28;20679;-62
2023/10/18 09:38:39;;;;;;;5.43;3.27;;;;;;;8.57;59.35;100410.56;5050257;28;20214;-62
2023/10/18 09:41:07;;;;;;;8.30;3.47;;;;;;;8.63;58.40;100408.00;5050415;28;20213;-64
2023/10/18 09:43:36;;;;;;;5.33;2.97;;;;;;;8.68;58.13;100400.31;5050744;28;20931;-65
2023/10/18 09:46:07;;;;;;;3.67;2.93;;;;;;;8.76;57.87;100408.03;5055689;28;20662;-67
2023/10/18 09:48:38;;;;;;;6.87;2.83;;;;;;;8.79;57.90;100390.91;5051222;28;20660;-66
2023/10/18 09:51:08;;;;;;;6.60;2.93;;;;;;;8.80;57.58;100390.06;5050538;28;20205;-62
2023/10/18 09:53:42;;;;;;;5.53;3.20;;;;;;;8.82;57.34;100400.34;5053777;28;20679;-66
2023/10/18 09:56:15;;;;;;;5.50;3.10;;;;;;;8.84;57.70;100391.78;5054033;28;20213;-63
2023/10/18 09:58:47;;;;;;;3.97;2.83;;;;;;;8.87;57.27;100396.06;5053887;28;20281;-63
2023/10/18 10:01:25;;;;;;;4.73;3.37;;;;;;;8.91;57.79;100401.22;5054128;28;20296;-65
2023/10/18 10:03:56;;;;;;;5.50;3.37;;;;;;;8.93;57.77;100394.34;5050343;28;20724;-61
2023/10/18 10:06:26;;;;;;;6.93;3.23;;;;;;;8.97;57.37;100391.78;5049868;28;20210;-62
2023/10/18 10:09:09;;;;;;;5.40;3.20;;;;;;;9.04;58.02;100384.06;5047217;28;20676;-63
2023/10/18 10:11:38;;;;;;;5.30;3.40;;;;;;;9.12;57.20;100379.78;5055242;28;20209;-65
2023/10/18 10:14:08;;;;;;;5.87;3.60;;;;;;;9.16;57.22;100380.63;5051411;28;20217;-66
2023/10/18 10:16:46;;;;;;;4.93;3.40;;;;;;;9.14;56.65;100375.50;5051022;28;20202;-66
2023/10/18 10:19:18;;;;;;;4.60;3.30;;;;;;;9.19;57.38;100376.34;5052816;28;20737;-64
2023/10/18 10:21:47;;;;;;;7.60;3.67;;;;;;;9.24;57.48;100371.19;5053772;28;20734;-64
2023/10/18 10:27:27;;;;;;;5.73;3.50;;;;;;;9.34;57.43;100377.19;5054632;28;20209;-63
2023/10/18 10:29:58;;;;;;;3.87;2.63;;;;;;;9.42;56.95;100372.91;5053109;28;20237;-64
2023/10/18 10:32:28;;;;;;;3.67;2.53;;;;;;;9.44;56.03;100368.63;5055598;28;20247;-64
2023/10/18 10:35:15;;;;;;;5.23;2.90;;;;;;;9.47;55.82;100353.19;5053639;28;20210;-65
2023/10/18 10:37:47;;;;;;;2.80;2.43;;;;;;;9.48;55.35;100365.19;5047217;28;20304;-63
2023/10/18 10:40:35;;;;;;;4.93;2.90;;;;;;;9.52;55.56;100363.47;5054193;28;20202;-65
2023/10/18 10:43:08;;;;;;;3.57;1.83;;;;;;;9.57;55.21;100349.75;5053468;28;20696;-63
2023/10/18 10:45:39;;;;;;;5.60;2.33;;;;;;;9.60;54.93;100369.44;5052370;28;20198;-65
2023/10/18 10:48:45;;;;;;;7.13;2.70;;;;;;;9.63;54.77;100354.84;5053581;28;20233;-65
2023/10/18 10:51:16;;;;;;;5.83;3.03;;;;;;;9.72;55.22;100353.09;5042308;28;20220;-65
2023/10/18 10:53:49;;;;;;;3.37;2.10;;;;;;;9.87;53.80;100350.50;5049553;28;20197;-64
2023/10/18 10:56:21;;;;;;;5.13;2.47;;;;;;;10.21;53.06;100352.94;5051499;28;20728;-64
2023/10/18 10:58:55;;;;;;;2.80;2.03;;;;;;;10.64;52.22;100341.53;5049402;28;20282;-67
2023/10/18 11:01:40;;;;;;;5.80;2.10;;;;;;;11.21;51.03;100345.34;5046861;28;20252;-67
2023/10/18 11:04:14;;;;;;;2.87;2.00;;;;;;;11.70;50.04;100334.50;5053714;28;20288;-62
2023/10/18 11:06:44;;;;;;;2.30;2.07;;;;;;;12.06;48.38;100331.53;5055330;28;20260;-74
2023/10/18 11:09:16;;;;;;;2.00;1.80;;;;;;;12.30;47.32;100335.50;5052914;28;20233;-66
2023/10/18 11:11:46;;;;;;;4.17;2.00;;;;;;;12.41;45.93;100327.59;5049997;28;20611;-66
2023/10/18 11:14:18;;;;;;;4.13;2.70;;;;;;;12.63;46.22;100324.69;5052913;28;20205;-64
2023/10/18 11:16:50;;;;;;;2.67;2.00;;;;;;;12.75;44.72;100314.16;5042855;28;20198;-65
2023/10/18 11:19:28;;;;;;;3.40;1.80;;;;;;;12.85;44.32;100315.72;5052048;28;20220;-64
2023/10/18 11:21:58;;;;;;;2.00;1.70;;;;;;;12.85;44.05;100326.06;5041584;28;20217;-63
2023/10/18 11:24:27;;;;;;;2.77;1.67;;;;;;;12.89;44.73;100307.03;5052154;28;20714;-63
2023/10/18 11:26:58;;;;;;;2.83;2.07;;;;;;;13.31;44.81;100298.56;5052055;28;20199;-63
2023/10/18 11:29:26;;;;;;;3.50;2.30;;;;;;;13.58;43.15;100310.13;5052694;28;20252;-64
2023/10/18 11:31:56;;;;;;;4.80;1.73;;;;;;;13.90;42.28;100302.56;5050650;28;20217;-62
2023/10/18 11:34:26;;;;;;;5.30;2.10;;;;;;;13.65;41.97;100298.75;5042062;28;20244;-64
2023/10/18 11:36:55;;;;;;;4.77;2.27;;;;;;;13.26;42.42;100299.50;5051464;28;20208;-64
2023/10/18 11:39:29;;;;;;;4.77;2.20;;;;;;;12.57;44.39;100305.81;5052473;28;20279;-64
2023/10/18 11:41:57;;;;;;;3.50;2.50;;;;;;;12.58;45.56;100307.50;5049909;28;20226;-65
2023/10/18 11:44:30;;;;;;;3.40;2.07;;;;;;;12.93;45.28;100302.66;5042832;28;20676;-64
2023/10/18 11:47:11;;;;;;;2.60;1.87;;;;;;;13.42;43.82;100301.81;5052347;28;20285;-65
2023/10/18 11:49:42;;;;;;;4.20;2.20;;;;;;;13.50;42.58;100299.91;5051858;28;20267;-65
2023/10/18 11:52:16;;;;;;;4.00;2.37;;;;;;;13.46;42.63;100296.53;5050991;28;20256;-68
2023/10/18 11:54:47;;;;;;;2.87;2.00;;;;;;;13.63;43.07;100295.38;5051265;28;20293;-65
2023/10/18 11:57:26;;;;;;;4.73;2.30;;;;;;;13.28;42.83;100297.72;5051271;28;20209;-64
2023/10/18 11:59:56;;;;;;;4.37;2.50;;;;;;;12.93;44.42;100300.09;5050675;28;20676;-64
2023/10/18 12:02:28;;;;;;;4.97;2.50;;;;;;;13.14;44.28;100288.47;5051343;28;20673;-67